createdAt,value
2022-11-13T00:03:27.245Z,61.67
2022-11-13T00:07:45.885Z,61.38
2022-11-13T00:12:04.349Z,61.56
2022-11-13T00:16:25.475Z,61.84
2022-11-13T00:20:44.021Z,61.43
2022-11-13T00:25:02.463Z,61.48
2022-11-13T00:29:20.930Z,61.27
2022-11-13T00:38:20.478Z,61.43
2022-11-13T00:42:39.138Z,61.45
2022-11-13T00:46:57.716Z,61.56
2022-11-13T00:51:19.772Z,61.64
2022-11-13T00:55:38.768Z,61.61
2022-11-13T00:59:57.275Z,61.67
2022-11-13T01:04:15.736Z,61.29
2022-11-13T01:08:37.080Z,61.22
2022-11-13T01:12:55.507Z,60.96
2022-11-13T01:17:14.149Z,61.16
2022-11-13T01:21:32.979Z,61.12
2022-11-13T01:25:54.184Z,60.81
2022-11-13T01:30:14.639Z,60.85
2022-11-13T01:34:33.332Z,60.98
2022-11-13T01:38:52.826Z,61.00
2022-11-13T01:43:34.833Z,60.90
2022-11-13T01:47:54.322Z,61.03
2022-11-13T01:52:18.263Z,60.98
2022-11-13T01:56:37.267Z,61.01
2022-11-13T02:00:58.930Z,60.86
2022-11-13T02:05:18.094Z,60.88
2022-11-13T02:09:42.866Z,60.83
2022-11-13T02:14:03.411Z,60.63
2022-11-13T02:18:26.975Z,61.29
2022-11-13T02:23:02.372Z,61.08
2022-11-13T02:27:33.204Z,60.66
2022-11-13T02:31:51.800Z,60.43
2022-11-13T02:36:13.124Z,60.97
2022-11-13T02:40:34.186Z,60.76
2022-11-13T02:44:55.457Z,60.77
2022-11-13T02:49:14.304Z,60.64
2022-11-13T02:53:33.148Z,60.66
2022-11-13T02:57:51.603Z,60.84
2022-11-13T03:02:12.759Z,61.32
2022-11-13T03:06:31.301Z,60.95
2022-11-13T03:10:50.196Z,60.77
2022-11-13T03:15:11.564Z,60.88
2022-11-13T03:19:32.774Z,61.23
2022-11-13T03:23:51.639Z,61.29
2022-11-13T03:28:10.114Z,61.36
2022-11-13T03:32:28.787Z,61.11
2022-11-13T03:36:50.129Z,61.11
2022-11-13T03:41:08.944Z,61.18
2022-11-13T03:45:27.604Z,61.02
2022-11-13T03:49:46.624Z,61.18
2022-11-13T03:54:08.009Z,61.28
2022-11-13T03:58:27.284Z,61.00
2022-11-13T04:02:46.283Z,61.22
2022-11-13T04:07:05.008Z,60.94
2022-11-13T04:11:26.462Z,61.28
2022-11-13T04:15:44.969Z,61.18
2022-11-13T04:20:03.466Z,61.06
2022-11-13T04:24:21.973Z,61.14
2022-11-13T04:28:43.139Z,61.24
2022-11-13T04:33:01.745Z,62.54
2022-11-13T04:37:20.245Z,61.79
2022-11-13T04:41:55.215Z,62.24
2022-11-13T04:46:16.950Z,62.22
2022-11-13T04:50:35.729Z,62.64
2022-11-13T04:54:54.272Z,62.78
2022-11-13T04:59:13.707Z,63.12
2022-11-13T05:03:34.728Z,62.45
2022-11-13T05:07:53.297Z,62.05
2022-11-13T05:12:12.130Z,61.87
2022-11-13T05:16:30.771Z,62.13
2022-11-13T05:20:52.086Z,62.03
2022-11-13T05:25:11.895Z,63.35
2022-11-13T05:29:30.579Z,62.11
2022-11-13T05:33:49.563Z,62.62
2022-11-13T05:38:10.696Z,63.02
2022-11-13T05:42:29.077Z,63.15
2022-11-13T05:46:47.562Z,62.52
2022-11-13T05:51:07.840Z,62.47
2022-11-13T05:55:28.871Z,62.27
2022-11-13T05:59:47.577Z,62.14
2022-11-13T06:04:08.733Z,62.14
2022-11-13T06:08:27.611Z,62.83
2022-11-13T06:12:49.485Z,62.85
2022-11-13T06:17:08.276Z,63.29
2022-11-13T06:21:29.944Z,62.75
2022-11-13T06:25:49.524Z,62.89
2022-11-13T06:30:13.571Z,62.87
2022-11-13T06:34:32.343Z,62.62
2022-11-13T06:38:51.868Z,63.61
2022-11-13T06:43:10.449Z,63.61
2022-11-13T06:47:31.775Z,62.95
2022-11-13T06:51:50.667Z,63.19
2022-11-13T06:56:11.172Z,63.28
2022-11-13T07:00:35.286Z,63.55
2022-11-13T07:04:58.461Z,63.84
2022-11-13T07:09:17.216Z,63.68
2022-11-13T07:13:35.608Z,63.67
2022-11-13T07:17:54.397Z,61.69
2022-11-13T07:22:15.697Z,61.73
2022-11-13T07:26:34.288Z,61.29
2022-11-13T07:30:52.913Z,61.19
2022-11-13T07:35:12.437Z,60.08
2022-11-13T07:39:33.707Z,58.97
2022-11-13T07:43:52.386Z,59.23
2022-11-13T07:48:12.534Z,58.71
2022-11-13T07:52:31.473Z,59.13
2022-11-13T07:56:53.167Z,58.24
2022-11-13T08:01:12.965Z,57.02
2022-11-13T08:05:33.782Z,56.16
2022-11-13T08:09:52.266Z,55.46
2022-11-13T08:14:13.972Z,55.49
2022-11-13T08:18:34.943Z,55.54
2022-11-13T08:22:54.419Z,55.01
2022-11-13T08:27:13.289Z,54.17
2022-11-13T08:31:34.606Z,54.10
2022-11-13T08:35:57.311Z,53.93
2022-11-13T08:40:16.806Z,54.11
2022-11-13T08:44:35.325Z,53.28
2022-11-13T08:48:56.309Z,52.30
2022-11-13T08:53:14.853Z,52.12
2022-11-13T08:57:33.784Z,51.39
2022-11-13T09:01:58.351Z,48.61
2022-11-13T09:06:19.561Z,47.62
2022-11-13T09:10:38.134Z,45.82
2022-11-13T09:14:56.515Z,45.70
2022-11-13T09:19:15.164Z,45.05
2022-11-13T09:23:36.436Z,45.16
2022-11-13T09:27:57.419Z,43.10
2022-11-13T09:32:16.385Z,43.01
2022-11-13T09:36:35.057Z,42.95
2022-11-13T09:41:01.862Z,41.77
2022-11-13T09:45:21.123Z,42.10
2022-11-13T09:49:46.825Z,40.67
2022-11-13T09:54:09.853Z,39.44
2022-11-13T09:58:47.170Z,40.05
2022-11-13T10:03:46.618Z,39.97
2022-11-13T10:08:16.954Z,39.32
2022-11-13T10:12:36.911Z,39.48
2022-11-13T10:17:05.477Z,38.80
2022-11-13T10:21:36.915Z,38.61
2022-11-13T10:25:58.526Z,37.28
2022-11-13T10:30:21.405Z,36.70
2022-11-13T10:34:45.685Z,37.73
2022-11-13T10:39:09.607Z,36.69
2022-11-13T10:43:29.802Z,35.45
2022-11-13T10:48:08.191Z,35.67
2022-11-13T10:52:31.675Z,36.02
2022-11-13T10:57:01.315Z,36.18
2022-11-13T11:01:26.093Z,37.65
2022-11-13T11:05:56.863Z,38.64
2022-11-13T11:10:33.595Z,37.19
2022-11-13T11:15:12.503Z,37.46
2022-11-13T11:19:40.828Z,38.12
2022-11-13T11:24:07.731Z,37.11
2022-11-13T11:28:38.970Z,36.83
2022-11-13T11:33:09.805Z,38.11
2022-11-13T11:37:38.821Z,35.27
2022-11-13T11:42:12.656Z,34.95
2022-11-13T11:46:33.952Z,33.59
2022-11-13T11:51:16.547Z,32.63
2022-11-13T11:56:00.127Z,31.07
2022-11-13T12:00:22.675Z,29.98
2022-11-13T12:05:06.201Z,29.41
2022-11-13T12:09:33.135Z,30.22
2022-11-13T12:14:06.388Z,31.46
2022-11-13T12:18:40.031Z,29.68
2022-11-13T12:23:18.022Z,29.10
2022-11-13T12:27:44.134Z,29.88
2022-11-13T12:32:18.625Z,28.26
2022-11-13T12:36:37.974Z,27.61
2022-11-13T12:41:11.140Z,27.78
2022-11-13T12:45:48.637Z,26.47
2022-11-13T12:50:31.821Z,25.51
2022-11-13T12:54:52.554Z,25.32
2022-11-13T12:59:36.555Z,25.79
2022-11-13T13:04:33.353Z,27.31
2022-11-13T13:09:19.112Z,26.95
2022-11-13T13:13:49.850Z,27.19
2022-11-13T13:18:29.862Z,28.20
2022-11-13T13:23:00.031Z,28.40
2022-11-13T13:27:26.816Z,29.12
2022-11-13T13:31:55.473Z,28.52
2022-11-13T13:36:32.634Z,28.25
2022-11-13T13:41:14.833Z,30.94
2022-11-13T13:45:50.278Z,31.71
2022-11-13T13:50:17.338Z,32.27
2022-11-13T13:54:43.085Z,33.00
2022-11-13T13:59:03.137Z,32.39
2022-11-13T14:03:26.211Z,32.11
2022-11-13T14:07:49.645Z,32.15
2022-11-13T14:12:22.828Z,32.75
2022-11-13T14:16:51.399Z,33.15
2022-11-13T14:21:18.228Z,35.41
2022-11-13T14:25:37.191Z,35.05
2022-11-13T14:30:02.384Z,35.65
2022-11-13T14:34:26.436Z,35.68
2022-11-13T14:38:52.239Z,36.75
2022-11-13T14:43:21.584Z,37.56
2022-11-13T14:47:44.034Z,38.43
2022-11-13T14:52:03.822Z,37.48
2022-11-13T14:56:22.739Z,37.47
2022-11-13T15:00:42.000Z,39.96
2022-11-13T15:05:03.620Z,40.67
2022-11-13T15:09:22.418Z,40.41
2022-11-13T15:13:41.099Z,41.93
2022-11-13T15:17:59.757Z,42.92
2022-11-13T15:22:27.309Z,44.10
2022-11-13T15:26:46.873Z,46.60
2022-11-13T15:31:06.226Z,49.10
2022-11-13T15:35:24.759Z,50.34
2022-11-13T15:39:46.058Z,51.01
2022-11-13T15:44:10.097Z,51.44
2022-11-13T15:48:28.530Z,52.86
2022-11-13T15:52:52.000Z,53.75
2022-11-13T15:57:22.959Z,52.88
2022-11-13T16:01:42.036Z,52.97
2022-11-13T16:06:02.173Z,54.17
2022-11-13T16:10:21.691Z,54.63
2022-11-13T16:14:43.727Z,54.98
2022-11-13T16:19:04.188Z,55.27
2022-11-13T16:23:22.952Z,55.98
2022-11-13T16:27:42.383Z,55.94
2022-11-13T16:32:03.720Z,56.17
2022-11-13T16:36:24.899Z,57.16
2022-11-13T16:40:45.630Z,56.91
2022-11-13T16:45:04.329Z,56.48
2022-11-13T16:49:25.541Z,56.94
2022-11-13T16:53:44.083Z,57.16
2022-11-13T16:58:02.687Z,58.30
2022-11-13T17:02:22.049Z,57.79
2022-11-13T17:06:43.272Z,57.78
2022-11-13T17:11:02.341Z,58.13
2022-11-13T17:15:24.237Z,58.31
2022-11-13T17:19:44.254Z,58.55
2022-11-13T17:24:06.912Z,58.24
2022-11-13T17:28:25.839Z,58.11
2022-11-13T17:32:44.426Z,57.94
2022-11-13T17:37:03.735Z,58.29
2022-11-13T17:41:25.028Z,58.81
2022-11-13T17:45:43.526Z,58.70
2022-11-13T17:50:06.969Z,57.92
2022-11-13T17:54:25.954Z,59.36
2022-11-13T17:58:48.814Z,58.84
2022-11-13T18:03:08.144Z,58.49
2022-11-13T18:07:26.658Z,59.69
2022-11-13T18:11:45.694Z,60.04
2022-11-13T18:16:14.494Z,59.13
2022-11-13T18:20:33.687Z,59.32
2022-11-13T18:24:52.295Z,59.77
2022-11-13T18:29:11.423Z,60.68
2022-11-13T18:33:33.169Z,59.88
2022-11-13T18:37:53.163Z,60.15
2022-11-13T18:42:12.090Z,60.06
2022-11-13T18:46:31.195Z,60.45
2022-11-13T18:51:02.663Z,60.16
2022-11-13T18:55:20.979Z,60.25
2022-11-13T18:59:39.629Z,59.76
2022-11-13T19:08:47.662Z,59.36
2022-11-13T19:13:06.749Z,59.51
2022-11-13T19:17:26.790Z,60.21
2022-11-13T19:21:46.337Z,59.64
2022-11-13T19:26:08.926Z,60.30
2022-11-13T19:30:27.805Z,60.15
2022-11-13T19:34:47.028Z,58.73
2022-11-13T19:39:06.634Z,60.28
2022-11-13T19:43:28.039Z,60.11
2022-11-13T19:47:46.722Z,59.92
2022-11-13T19:52:05.281Z,59.85
2022-11-13T19:56:26.052Z,59.72
2022-11-13T20:00:47.381Z,59.44
2022-11-13T20:05:06.188Z,61.20
2022-11-13T20:09:24.690Z,60.76
2022-11-13T20:13:44.900Z,61.51
2022-11-13T20:18:06.340Z,62.02
2022-11-13T20:22:25.153Z,61.99
2022-11-13T20:26:45.595Z,61.81
2022-11-13T20:31:10.154Z,62.26
2022-11-13T20:35:31.369Z,61.98
2022-11-13T20:39:50.363Z,61.76
2022-11-13T20:44:09.331Z,61.33
2022-11-13T20:48:29.880Z,62.41
2022-11-13T20:52:51.698Z,61.79
2022-11-13T20:57:10.575Z,60.98
2022-11-13T21:01:30.964Z,61.01
2022-11-13T21:05:49.899Z,61.30
2022-11-13T21:10:14.008Z,60.62
2022-11-13T21:14:32.767Z,60.47
2022-11-13T21:18:51.530Z,60.61
2022-11-13T21:23:10.274Z,60.35
2022-11-13T21:27:31.328Z,59.98
2022-11-13T21:31:49.800Z,61.78
2022-11-13T21:36:12.575Z,61.29
2022-11-13T21:40:31.064Z,60.79
2022-11-13T21:44:52.376Z,60.37
2022-11-13T21:49:13.918Z,60.95
2022-11-13T21:53:32.270Z,60.98
2022-11-13T21:57:50.760Z,61.20
2022-11-13T22:02:14.006Z,61.50
2022-11-13T22:06:36.606Z,62.07
2022-11-13T22:10:57.130Z,61.27
2022-11-13T22:15:15.787Z,61.11
2022-11-13T22:19:37.331Z,61.84
2022-11-13T22:23:56.622Z,61.67
2022-11-13T22:28:15.372Z,63.28
2022-11-13T22:32:34.500Z,62.54
2022-11-13T22:36:56.169Z,62.61
2022-11-13T22:41:22.654Z,62.17
2022-11-13T22:45:42.715Z,62.93
2022-11-13T22:50:01.389Z,62.19
2022-11-13T22:54:22.620Z,62.33
2022-11-13T22:58:41.430Z,62.25
2022-11-13T23:03:03.396Z,61.99
2022-11-13T23:07:25.091Z,62.06
2022-11-13T23:11:46.566Z,61.64
2022-11-13T23:16:05.670Z,61.09
2022-11-13T23:20:24.377Z,62.11
2022-11-13T23:24:42.932Z,61.52
2022-11-13T23:29:03.910Z,62.04
2022-11-13T23:33:23.005Z,61.08
2022-11-13T23:37:41.791Z,61.50
2022-11-13T23:42:00.245Z,61.85
2022-11-13T23:46:22.265Z,61.70
2022-11-13T23:50:41.064Z,61.79
2022-11-13T23:54:59.934Z,61.64
2022-11-13T23:59:18.343Z,61.11
